sensor_id;sensor_type;location;lat;lon;timestamp;P1;durP1;ratioP1;P2;durP2;ratioP2
40871;SDS011;26591;43.264;26.940;2023-03-01T00:00:53;19.00;;;14.05;;
40871;SDS011;26591;43.264;26.940;2023-03-01T00:03:18;20.20;;;14.30;;
40871;SDS011;26591;43.264;26.940;2023-03-01T00:05:47;20.85;;;14.50;;
40871;SDS011;26591;43.264;26.940;2023-03-01T00:08:12;17.83;;;13.20;;
40871;SDS011;26591;43.264;26.940;2023-03-01T00:10:38;18.15;;;12.95;;
40871;SDS011;26591;43.264;26.940;2023-03-01T00:13:03;16.85;;;11.98;;
40871;SDS011;26591;43.264;26.940;2023-03-01T00:15:30;15.88;;;11.55;;
40871;SDS011;26591;43.264;26.940;2023-03-01T00:17:56;27.48;;;16.30;;
40871;SDS011;26591;43.264;26.940;2023-03-01T00:20:22;17.25;;;13.10;;
40871;SDS011;26591;43.264;26.940;2023-03-01T00:22:48;22.27;;;14.98;;
40871;SDS011;26591;43.264;26.940;2023-03-01T00:25:14;15.60;;;11.68;;
40871;SDS011;26591;43.264;26.940;2023-03-01T00:27:39;15.07;;;11.25;;
40871;SDS011;26591;43.264;26.940;2023-03-01T00:30:05;17.55;;;13.10;;
40871;SDS011;26591;43.264;26.940;2023-03-01T00:32:31;15.48;;;11.35;;
40871;SDS011;26591;43.264;26.940;2023-03-01T00:34:56;17.65;;;12.48;;
40871;SDS011;26591;43.264;26.940;2023-03-01T00:37:22;17.63;;;12.43;;
40871;SDS011;26591;43.264;26.940;2023-03-01T00:39:48;17.58;;;12.18;;
40871;SDS011;26591;43.264;26.940;2023-03-01T00:42:14;16.90;;;12.20;;
40871;SDS011;26591;43.264;26.940;2023-03-01T00:44:40;17.50;;;12.52;;
40871;SDS011;26591;43.264;26.940;2023-03-01T00:47:06;20.88;;;13.65;;
40871;SDS011;26591;43.264;26.940;2023-03-01T00:49:32;20.40;;;13.30;;
40871;SDS011;26591;43.264;26.940;2023-03-01T00:51:57;19.52;;;13.50;;
40871;SDS011;26591;43.264;26.940;2023-03-01T00:54:23;15.70;;;11.88;;
40871;SDS011;26591;43.264;26.940;2023-03-01T00:56:48;19.85;;;13.57;;
40871;SDS011;26591;43.264;26.940;2023-03-01T00:59:14;20.92;;;15.02;;
40871;SDS011;26591;43.264;26.940;2023-03-01T01:01:39;18.23;;;14.43;;
40871;SDS011;26591;43.264;26.940;2023-03-01T01:04:06;21.08;;;14.60;;
40871;SDS011;26591;43.264;26.940;2023-03-01T01:06:35;16.38;;;12.07;;
40871;SDS011;26591;43.264;26.940;2023-03-01T01:09:03;15.32;;;11.13;;
40871;SDS011;26591;43.264;26.940;2023-03-01T01:11:30;15.75;;;11.15;;
40871;SDS011;26591;43.264;26.940;2023-03-01T01:13:56;17.70;;;11.73;;
40871;SDS011;26591;43.264;26.940;2023-03-01T01:16:23;16.23;;;10.55;;
40871;SDS011;26591;43.264;26.940;2023-03-01T01:18:50;16.80;;;11.20;;
40871;SDS011;26591;43.264;26.940;2023-03-01T01:21:17;17.55;;;10.45;;
40871;SDS011;26591;43.264;26.940;2023-03-01T01:23:44;14.40;;;9.57;;
40871;SDS011;26591;43.264;26.940;2023-03-01T01:26:13;13.60;;;9.50;;
40871;SDS011;26591;43.264;26.940;2023-03-01T01:28:44;11.68;;;8.77;;
40871;SDS011;26591;43.264;26.940;2023-03-01T01:31:10;11.90;;;8.63;;
40871;SDS011;26591;43.264;26.940;2023-03-01T01:33:37;11.18;;;8.55;;
40871;SDS011;26591;43.264;26.940;2023-03-01T01:36:03;15.98;;;8.90;;
40871;SDS011;26591;43.264;26.940;2023-03-01T01:38:29;10.40;;;7.57;;
40871;SDS011;26591;43.264;26.940;2023-03-01T01:40:55;12.20;;;8.10;;
40871;SDS011;26591;43.264;26.940;2023-03-01T01:43:32;12.43;;;7.75;;
40871;SDS011;26591;43.264;26.940;2023-03-01T01:46:01;12.73;;;8.05;;
40871;SDS011;26591;43.264;26.940;2023-03-01T01:48:54;9.77;;;6.95;;
40871;SDS011;26591;43.264;26.940;2023-03-01T01:51:39;13.32;;;7.22;;
40871;SDS011;26591;43.264;26.940;2023-03-01T01:54:18;12.10;;;7.40;;
40871;SDS011;26591;43.264;26.940;2023-03-01T01:56:51;12.18;;;7.35;;
40871;SDS011;26591;43.264;26.940;2023-03-01T01:59:21;14.10;;;8.80;;
40871;SDS011;26591;43.264;26.940;2023-03-01T02:01:50;18.15;;;8.52;;
40871;SDS011;26591;43.264;26.940;2023-03-01T02:04:16;12.85;;;7.85;;
40871;SDS011;26591;43.264;26.940;2023-03-01T02:06:48;16.88;;;8.85;;
40871;SDS011;26591;43.264;26.940;2023-03-01T02:09:19;15.98;;;9.23;;
40871;SDS011;26591;43.264;26.940;2023-03-01T02:11:46;15.32;;;8.65;;
40871;SDS011;26591;43.264;26.940;2023-03-01T02:14:13;11.80;;;7.40;;
40871;SDS011;26591;43.264;26.940;2023-03-01T02:16:40;16.25;;;8.77;;
40871;SDS011;26591;43.264;26.940;2023-03-01T02:19:07;14.75;;;8.18;;
40871;SDS011;26591;43.264;26.940;2023-03-01T02:21:45;12.27;;;7.57;;
40871;SDS011;26591;43.264;26.940;2023-03-01T02:24:28;13.10;;;7.80;;
40871;SDS011;26591;43.264;26.940;2023-03-01T02:27:22;15.30;;;8.90;;
40871;SDS011;26591;43.264;26.940;2023-03-01T02:29:54;14.05;;;9.32;;
40871;SDS011;26591;43.264;26.940;2023-03-01T02:32:20;14.50;;;8.43;;
40871;SDS011;26591;43.264;26.940;2023-03-01T02:34:51;13.73;;;8.25;;
40871;SDS011;26591;43.264;26.940;2023-03-01T02:37:19;14.30;;;8.68;;
40871;SDS011;26591;43.264;26.940;2023-03-01T02:39:50;13.98;;;8.85;;
40871;SDS011;26591;43.264;26.940;2023-03-01T02:42:23;13.07;;;8.00;;
40871;SDS011;26591;43.264;26.940;2023-03-01T02:44:55;13.45;;;7.72;;
40871;SDS011;26591;43.264;26.940;2023-03-01T02:47:21;12.05;;;7.50;;
40871;SDS011;26591;43.264;26.940;2023-03-01T02:49:46;13.13;;;8.35;;
40871;SDS011;26591;43.264;26.940;2023-03-01T02:55:13;16.70;;;9.32;;
40871;SDS011;26591;43.264;26.940;2023-03-01T02:57:42;15.27;;;8.85;;
40871;SDS011;26591;43.264;26.940;2023-03-01T03:00:09;14.15;;;8.45;;
40871;SDS011;26591;43.264;26.940;2023-03-01T03:02:44;12.65;;;8.75;;
40871;SDS011;26591;43.264;26.940;2023-03-01T03:05:17;13.15;;;8.45;;
40871;SDS011;26591;43.264;26.940;2023-03-01T03:07:45;13.65;;;8.90;;
40871;SDS011;26591;43.264;26.940;2023-03-01T03:10:14;12.13;;;8.68;;
40871;SDS011;26591;43.264;26.940;2023-03-01T03:12:44;15.15;;;10.25;;
40871;SDS011;26591;43.264;26.940;2023-03-01T03:15:14;14.30;;;9.50;;
40871;SDS011;26591;43.264;26.940;2023-03-01T03:17:40;12.38;;;8.25;;
40871;SDS011;26591;43.264;26.940;2023-03-01T03:20:07;13.70;;;8.95;;
40871;SDS011;26591;43.264;26.940;2023-03-01T03:22:40;16.95;;;9.57;;
40871;SDS011;26591;43.264;26.940;2023-03-01T03:25:08;15.13;;;9.50;;
40871;SDS011;26591;43.264;26.940;2023-03-01T03:27:37;12.65;;;8.95;;
40871;SDS011;26591;43.264;26.940;2023-03-01T03:30:05;12.70;;;9.23;;
40871;SDS011;26591;43.264;26.940;2023-03-01T03:32:35;14.27;;;10.38;;
40871;SDS011;26591;43.264;26.940;2023-03-01T03:35:02;15.25;;;10.35;;
40871;SDS011;26591;43.264;26.940;2023-03-01T03:37:35;16.38;;;11.40;;
40871;SDS011;26591;43.264;26.940;2023-03-01T03:40:22;19.48;;;11.30;;
40871;SDS011;26591;43.264;26.940;2023-03-01T03:42:48;19.35;;;11.27;;
40871;SDS011;26591;43.264;26.940;2023-03-01T03:45:15;20.23;;;11.90;;
40871;SDS011;26591;43.264;26.940;2023-03-01T03:47:41;18.98;;;11.43;;
40871;SDS011;26591;43.264;26.940;2023-03-01T03:50:07;22.17;;;12.02;;
40871;SDS011;26591;43.264;26.940;2023-03-01T03:52:52;19.05;;;12.75;;
40871;SDS011;26591;43.264;26.940;2023-03-01T03:55:18;20.13;;;11.65;;
40871;SDS011;26591;43.264;26.940;2023-03-01T03:57:53;20.35;;;13.50;;
40871;SDS011;26591;43.264;26.940;2023-03-01T04:00:19;25.95;;;12.43;;
40871;SDS011;26591;43.264;26.940;2023-03-01T04:02:47;24.88;;;15.98;;
40871;SDS011;26591;43.264;26.940;2023-03-01T04:05:14;19.70;;;13.73;;
40871;SDS011;26591;43.264;26.940;2023-03-01T04:07:41;18.42;;;12.65;;
40871;SDS011;26591;43.264;26.940;2023-03-01T04:10:12;20.05;;;13.48;;
40871;SDS011;26591;43.264;26.940;2023-03-01T04:12:40;20.38;;;13.90;;
40871;SDS011;26591;43.264;26.940;2023-03-01T04:15:06;22.55;;;14.88;;
40871;SDS011;26591;43.264;26.940;2023-03-01T04:17:41;22.10;;;13.18;;
40871;SDS011;26591;43.264;26.940;2023-03-01T04:20:12;24.50;;;13.80;;
40871;SDS011;26591;43.264;26.940;2023-03-01T04:22:43;19.48;;;11.85;;
40871;SDS011;26591;43.264;26.940;2023-03-01T04:25:12;21.10;;;13.27;;
40871;SDS011;26591;43.264;26.940;2023-03-01T04:27:39;18.90;;;12.48;;
40871;SDS011;26591;43.264;26.940;2023-03-01T04:30:05;21.42;;;14.18;;
40871;SDS011;26591;43.264;26.940;2023-03-01T04:32:32;24.52;;;15.07;;
40871;SDS011;26591;43.264;26.940;2023-03-01T04:34:57;27.48;;;16.67;;
40871;SDS011;26591;43.264;26.940;2023-03-01T04:37:23;24.63;;;16.27;;
40871;SDS011;26591;43.264;26.940;2023-03-01T04:39:49;28.40;;;17.23;;
40871;SDS011;26591;43.264;26.940;2023-03-01T04:42:15;25.53;;;16.47;;
40871;SDS011;26591;43.264;26.940;2023-03-01T04:44:42;31.45;;;17.30;;
40871;SDS011;26591;43.264;26.940;2023-03-01T04:47:08;25.25;;;15.38;;
40871;SDS011;26591;43.264;26.940;2023-03-01T04:49:33;26.42;;;15.48;;
40871;SDS011;26591;43.264;26.940;2023-03-01T04:51:59;22.08;;;14.13;;
40871;SDS011;26591;43.264;26.940;2023-03-01T04:54:27;27.52;;;18.00;;
40871;SDS011;26591;43.264;26.940;2023-03-01T04:56:53;28.20;;;16.63;;
40871;SDS011;26591;43.264;26.940;2023-03-01T04:59:19;34.03;;;21.73;;
40871;SDS011;26591;43.264;26.940;2023-03-01T05:01:48;31.08;;;20.42;;
40871;SDS011;26591;43.264;26.940;2023-03-01T05:04:14;38.03;;;22.58;;
40871;SDS011;26591;43.264;26.940;2023-03-01T05:06:40;53.88;;;35.33;;
40871;SDS011;26591;43.264;26.940;2023-03-01T05:09:06;37.03;;;23.60;;
40871;SDS011;26591;43.264;26.940;2023-03-01T05:11:31;24.70;;;16.63;;
40871;SDS011;26591;43.264;26.940;2023-03-01T05:14:04;25.75;;;16.88;;
40871;SDS011;26591;43.264;26.940;2023-03-01T05:16:30;28.23;;;19.13;;
40871;SDS011;26591;43.264;26.940;2023-03-01T05:18:57;21.83;;;15.20;;
40871;SDS011;26591;43.264;26.940;2023-03-01T05:21:23;23.92;;;16.83;;
40871;SDS011;26591;43.264;26.940;2023-03-01T05:23:49;23.00;;;14.48;;
40871;SDS011;26591;43.264;26.940;2023-03-01T05:26:15;28.08;;;16.05;;
40871;SDS011;26591;43.264;26.940;2023-03-01T05:28:42;28.92;;;17.77;;
40871;SDS011;26591;43.264;26.940;2023-03-01T05:31:08;31.17;;;18.88;;
40871;SDS011;26591;43.264;26.940;2023-03-01T05:33:36;30.15;;;18.27;;
40871;SDS011;26591;43.264;26.940;2023-03-01T05:36:03;26.52;;;18.35;;
40871;SDS011;26591;43.264;26.940;2023-03-01T05:38:28;28.38;;;16.10;;
40871;SDS011;26591;43.264;26.940;2023-03-01T05:40:54;28.73;;;20.63;;
40871;SDS011;26591;43.264;26.940;2023-03-01T05:43:19;27.98;;;17.80;;
40871;SDS011;26591;43.264;26.940;2023-03-01T05:45:45;26.17;;;17.35;;
40871;SDS011;26591;43.264;26.940;2023-03-01T05:48:11;26.73;;;18.02;;
40871;SDS011;26591;43.264;26.940;2023-03-01T05:50:39;27.75;;;18.42;;
40871;SDS011;26591;43.264;26.940;2023-03-01T05:53:07;23.05;;;17.65;;
40871;SDS011;26591;43.264;26.940;2023-03-01T05:55:47;26.48;;;15.98;;
40871;SDS011;26591;43.264;26.940;2023-03-01T05:58:14;27.17;;;16.73;;
40871;SDS011;26591;43.264;26.940;2023-03-01T06:00:45;28.10;;;16.33;;
40871;SDS011;26591;43.264;26.940;2023-03-01T06:03:13;26.55;;;18.30;;
40871;SDS011;26591;43.264;26.940;2023-03-01T06:05:40;28.65;;;19.17;;
40871;SDS011;26591;43.264;26.940;2023-03-01T06:08:07;31.10;;;20.20;;
40871;SDS011;26591;43.264;26.940;2023-03-01T06:10:34;27.27;;;17.60;;
40871;SDS011;26591;43.264;26.940;2023-03-01T06:13:00;27.70;;;18.77;;
40871;SDS011;26591;43.264;26.940;2023-03-01T06:15:25;25.00;;;17.88;;
40871;SDS011;26591;43.264;26.940;2023-03-01T06:17:51;29.65;;;18.27;;
40871;SDS011;26591;43.264;26.940;2023-03-01T06:20:18;29.80;;;18.90;;
40871;SDS011;26591;43.264;26.940;2023-03-01T06:22:45;25.77;;;17.15;;
40871;SDS011;26591;43.264;26.940;2023-03-01T06:25:12;27.30;;;17.10;;
40871;SDS011;26591;43.264;26.940;2023-03-01T06:27:40;28.08;;;19.30;;
40871;SDS011;26591;43.264;26.940;2023-03-01T06:30:06;30.60;;;18.63;;
40871;SDS011;26591;43.264;26.940;2023-03-01T06:32:33;29.90;;;18.13;;
40871;SDS011;26591;43.264;26.940;2023-03-01T06:34:58;27.75;;;17.63;;
40871;SDS011;26591;43.264;26.940;2023-03-01T06:37:24;27.90;;;19.05;;
40871;SDS011;26591;43.264;26.940;2023-03-01T06:39:50;32.70;;;20.42;;
40871;SDS011;26591;43.264;26.940;2023-03-01T06:42:16;35.95;;;19.17;;
40871;SDS011;26591;43.264;26.940;2023-03-01T06:44:41;30.52;;;19.90;;
40871;SDS011;26591;43.264;26.940;2023-03-01T06:47:07;31.83;;;21.27;;
40871;SDS011;26591;43.264;26.940;2023-03-01T06:49:32;33.10;;;21.65;;
40871;SDS011;26591;43.264;26.940;2023-03-01T06:51:58;27.67;;;18.63;;
40871;SDS011;26591;43.264;26.940;2023-03-01T06:54:23;30.05;;;19.95;;
40871;SDS011;26591;43.264;26.940;2023-03-01T06:56:49;28.13;;;18.58;;
40871;SDS011;26591;43.264;26.940;2023-03-01T06:59:15;31.70;;;19.70;;
40871;SDS011;26591;43.264;26.940;2023-03-01T07:01:41;27.08;;;18.35;;
40871;SDS011;26591;43.264;26.940;2023-03-01T07:04:08;30.23;;;19.65;;
40871;SDS011;26591;43.264;26.940;2023-03-01T07:06:34;34.83;;;19.40;;
40871;SDS011;26591;43.264;26.940;2023-03-01T07:09:00;31.20;;;20.10;;
40871;SDS011;26591;43.264;26.940;2023-03-01T07:11:25;38.70;;;23.27;;
40871;SDS011;26591;43.264;26.940;2023-03-01T07:13:50;30.90;;;19.77;;
40871;SDS011;26591;43.264;26.940;2023-03-01T07:16:16;31.00;;;18.67;;
40871;SDS011;26591;43.264;26.940;2023-03-01T07:18:41;27.73;;;17.83;;
40871;SDS011;26591;43.264;26.940;2023-03-01T07:21:07;25.92;;;19.00;;
40871;SDS011;26591;43.264;26.940;2023-03-01T07:23:34;32.15;;;19.67;;
40871;SDS011;26591;43.264;26.940;2023-03-01T07:25:59;28.17;;;19.02;;
40871;SDS011;26591;43.264;26.940;2023-03-01T07:28:25;34.33;;;20.13;;
40871;SDS011;26591;43.264;26.940;2023-03-01T07:30:52;29.70;;;19.38;;
40871;SDS011;26591;43.264;26.940;2023-03-01T07:33:17;30.42;;;19.90;;
40871;SDS011;26591;43.264;26.940;2023-03-01T07:35:43;31.45;;;20.92;;
40871;SDS011;26591;43.264;26.940;2023-03-01T07:38:08;30.52;;;19.70;;
40871;SDS011;26591;43.264;26.940;2023-03-01T07:40:34;35.92;;;21.13;;
40871;SDS011;26591;43.264;26.940;2023-03-01T07:43:00;30.83;;;20.60;;
40871;SDS011;26591;43.264;26.940;2023-03-01T07:45:26;36.83;;;22.20;;
40871;SDS011;26591;43.264;26.940;2023-03-01T07:47:52;34.28;;;22.38;;
40871;SDS011;26591;43.264;26.940;2023-03-01T07:53:11;30.30;;;20.85;;
40871;SDS011;26591;43.264;26.940;2023-03-01T07:55:37;36.05;;;22.70;;
40871;SDS011;26591;43.264;26.940;2023-03-01T07:58:02;42.15;;;21.92;;
40871;SDS011;26591;43.264;26.940;2023-03-01T08:00:28;31.08;;;19.17;;
40871;SDS011;26591;43.264;26.940;2023-03-01T08:02:54;33.03;;;21.27;;
40871;SDS011;26591;43.264;26.940;2023-03-01T08:05:19;28.95;;;18.98;;
40871;SDS011;26591;43.264;26.940;2023-03-01T08:07:47;27.13;;;18.40;;
40871;SDS011;26591;43.264;26.940;2023-03-01T08:10:12;27.05;;;17.02;;
40871;SDS011;26591;43.264;26.940;2023-03-01T08:12:38;36.38;;;19.30;;
40871;SDS011;26591;43.264;26.940;2023-03-01T08:15:03;25.77;;;17.88;;
40871;SDS011;26591;43.264;26.940;2023-03-01T08:17:29;32.47;;;19.48;;
40871;SDS011;26591;43.264;26.940;2023-03-01T08:19:54;28.67;;;17.80;;
40871;SDS011;26591;43.264;26.940;2023-03-01T08:22:20;30.50;;;18.10;;
40871;SDS011;26591;43.264;26.940;2023-03-01T08:24:46;28.05;;;17.98;;
40871;SDS011;26591;43.264;26.940;2023-03-01T08:27:14;30.25;;;18.15;;
40871;SDS011;26591;43.264;26.940;2023-03-01T08:29:41;28.83;;;18.52;;
40871;SDS011;26591;43.264;26.940;2023-03-01T08:32:06;31.38;;;17.35;;
40871;SDS011;26591;43.264;26.940;2023-03-01T08:34:32;23.48;;;13.93;;
40871;SDS011;26591;43.264;26.940;2023-03-01T08:37:00;25.58;;;18.60;;
40871;SDS011;26591;43.264;26.940;2023-03-01T08:39:26;28.75;;;19.38;;
40871;SDS011;26591;43.264;26.940;2023-03-01T08:41:52;27.60;;;17.98;;
40871;SDS011;26591;43.264;26.940;2023-03-01T08:44:17;31.08;;;17.58;;
40871;SDS011;26591;43.264;26.940;2023-03-01T08:46:43;23.60;;;15.32;;
40871;SDS011;26591;43.264;26.940;2023-03-01T08:49:14;27.27;;;17.25;;
40871;SDS011;26591;43.264;26.940;2023-03-01T08:51:43;27.60;;;15.55;;
40871;SDS011;26591;43.264;26.940;2023-03-01T08:54:10;23.27;;;15.35;;
40871;SDS011;26591;43.264;26.940;2023-03-01T08:56:38;24.25;;;16.90;;
40871;SDS011;26591;43.264;26.940;2023-03-01T08:59:16;21.15;;;15.65;;
40871;SDS011;26591;43.264;26.940;2023-03-01T09:01:42;25.65;;;15.68;;
40871;SDS011;26591;43.264;26.940;2023-03-01T09:04:08;25.33;;;17.42;;
40871;SDS011;26591;43.264;26.940;2023-03-01T09:06:35;27.58;;;16.98;;
40871;SDS011;26591;43.264;26.940;2023-03-01T09:09:01;29.55;;;19.92;;
40871;SDS011;26591;43.264;26.940;2023-03-01T09:11:27;31.67;;;19.88;;
40871;SDS011;26591;43.264;26.940;2023-03-01T09:13:54;27.15;;;17.08;;
40871;SDS011;26591;43.264;26.940;2023-03-01T09:16:20;29.70;;;19.02;;
40871;SDS011;26591;43.264;26.940;2023-03-01T09:18:53;27.23;;;19.35;;
40871;SDS011;26591;43.264;26.940;2023-03-01T09:21:20;28.83;;;18.27;;
40871;SDS011;26591;43.264;26.940;2023-03-01T09:23:48;26.67;;;18.25;;
40871;SDS011;26591;43.264;26.940;2023-03-01T09:26:17;24.85;;;17.48;;
40871;SDS011;26591;43.264;26.940;2023-03-01T09:31:10;25.23;;;16.08;;
40871;SDS011;26591;43.264;26.940;2023-03-01T09:33:40;31.65;;;16.55;;
40871;SDS011;26591;43.264;26.940;2023-03-01T09:36:09;27.77;;;18.25;;
40871;SDS011;26591;43.264;26.940;2023-03-01T09:38:36;32.75;;;19.67;;
40871;SDS011;26591;43.264;26.940;2023-03-01T09:41:02;51.67;;;28.67;;
40871;SDS011;26591;43.264;26.940;2023-03-01T09:46:11;28.77;;;18.73;;
40871;SDS011;26591;43.264;26.940;2023-03-01T09:48:43;27.50;;;18.23;;
40871;SDS011;26591;43.264;26.940;2023-03-01T09:51:12;26.70;;;19.30;;
40871;SDS011;26591;43.264;26.940;2023-03-01T09:53:47;27.50;;;17.83;;
40871;SDS011;26591;43.264;26.940;2023-03-01T09:56:59;27.20;;;18.92;;
40871;SDS011;26591;43.264;26.940;2023-03-01T09:59:19;27.60;;;17.02;;
40871;SDS011;26591;43.264;26.940;2023-03-01T10:04:46;35.67;;;19.73;;
40871;SDS011;26591;43.264;26.940;2023-03-01T10:07:17;28.13;;;19.63;;
40871;SDS011;26591;43.264;26.940;2023-03-01T10:10:06;34.85;;;18.90;;
40871;SDS011;26591;43.264;26.940;2023-03-01T10:12:41;34.47;;;20.83;;
40871;SDS011;26591;43.264;26.940;2023-03-01T10:15:19;31.33;;;19.63;;
40871;SDS011;26591;43.264;26.940;2023-03-01T10:18:00;31.10;;;18.20;;
40871;SDS011;26591;43.264;26.940;2023-03-01T10:20:54;32.22;;;18.23;;
40871;SDS011;26591;43.264;26.940;2023-03-01T10:23:22;27.73;;;18.80;;
40871;SDS011;26591;43.264;26.940;2023-03-01T10:34:12;38.15;;;19.33;;
40871;SDS011;26591;43.264;26.940;2023-03-01T10:42:34;26.63;;;16.88;;
40871;SDS011;26591;43.264;26.940;2023-03-01T10:48:09;32.45;;;21.67;;
40871;SDS011;26591;43.264;26.940;2023-03-01T10:50:42;38.42;;;21.02;;
40871;SDS011;26591;43.264;26.940;2023-03-01T10:55:59;37.80;;;20.95;;
40871;SDS011;26591;43.264;26.940;2023-03-01T10:58:27;31.50;;;20.08;;
40871;SDS011;26591;43.264;26.940;2023-03-01T11:00:55;31.80;;;19.40;;
40871;SDS011;26591;43.264;26.940;2023-03-01T11:03:29;29.10;;;19.98;;
40871;SDS011;26591;43.264;26.940;2023-03-01T11:11:05;31.50;;;19.38;;
40871;SDS011;26591;43.264;26.940;2023-03-01T11:13:34;25.10;;;15.73;;
40871;SDS011;26591;43.264;26.940;2023-03-01T11:16:05;33.25;;;20.02;;
40871;SDS011;26591;43.264;26.940;2023-03-01T11:18:35;37.03;;;20.98;;
40871;SDS011;26591;43.264;26.940;2023-03-01T11:21:00;29.85;;;19.33;;
40871;SDS011;26591;43.264;26.940;2023-03-01T11:23:27;33.13;;;21.10;;
40871;SDS011;26591;43.264;26.940;2023-03-01T11:25:55;28.60;;;18.35;;
40871;SDS011;26591;43.264;26.940;2023-03-01T11:28:24;27.50;;;18.40;;
40871;SDS011;26591;43.264;26.940;2023-03-01T11:31:08;28.50;;;19.08;;
40871;SDS011;26591;43.264;26.940;2023-03-01T11:33:48;31.77;;;21.05;;
40871;SDS011;26591;43.264;26.940;2023-03-01T11:36:30;26.70;;;19.27;;
40871;SDS011;26591;43.264;26.940;2023-03-01T11:42:19;34.53;;;20.50;;
40871;SDS011;26591;43.264;26.940;2023-03-01T11:44:50;33.10;;;20.38;;
40871;SDS011;26591;43.264;26.940;2023-03-01T12:04:24;40.92;;;22.50;;
40871;SDS011;26591;43.264;26.940;2023-03-01T12:13:08;49.03;;;25.35;;
40871;SDS011;26591;43.264;26.940;2023-03-01T12:26:59;42.17;;;24.05;;
40871;SDS011;26591;43.264;26.940;2023-03-01T12:29:34;41.22;;;22.27;;
40871;SDS011;26591;43.264;26.940;2023-03-01T12:38:30;48.95;;;22.05;;
40871;SDS011;26591;43.264;26.940;2023-03-01T12:55:24;36.75;;;21.30;;
40871;SDS011;26591;43.264;26.940;2023-03-01T12:58:02;39.50;;;21.95;;
40871;SDS011;26591;43.264;26.940;2023-03-01T13:09:29;31.05;;;20.80;;
40871;SDS011;26591;43.264;26.940;2023-03-01T13:17:52;37.78;;;22.83;;
40871;SDS011;26591;43.264;26.940;2023-03-01T13:20:19;42.83;;;22.93;;
40871;SDS011;26591;43.264;26.940;2023-03-01T13:22:49;44.47;;;25.45;;
40871;SDS011;26591;43.264;26.940;2023-03-01T13:25:27;44.10;;;24.52;;
40871;SDS011;26591;43.264;26.940;2023-03-01T13:27:52;35.88;;;21.88;;
40871;SDS011;26591;43.264;26.940;2023-03-01T13:30:59;39.97;;;23.23;;
40871;SDS011;26591;43.264;26.940;2023-03-01T13:35:51;36.28;;;22.98;;
40871;SDS011;26591;43.264;26.940;2023-03-01T13:44:15;38.08;;;24.33;;
40871;SDS011;26591;43.264;26.940;2023-03-01T13:47:36;59.55;;;33.17;;
40871;SDS011;26591;43.264;26.940;2023-03-01T13:49:57;43.15;;;26.40;;
40871;SDS011;26591;43.264;26.940;2023-03-01T13:52:43;35.22;;;23.38;;
40871;SDS011;26591;43.264;26.940;2023-03-01T13:57:40;40.80;;;27.02;;
40871;SDS011;26591;43.264;26.940;2023-03-01T14:05:36;41.10;;;26.67;;
40871;SDS011;26591;43.264;26.940;2023-03-01T14:08:03;41.30;;;26.38;;
40871;SDS011;26591;43.264;26.940;2023-03-01T14:10:35;37.83;;;24.63;;
40871;SDS011;26591;43.264;26.940;2023-03-01T14:21:41;47.58;;;29.30;;
40871;SDS011;26591;43.264;26.940;2023-03-01T14:24:15;42.72;;;27.67;;
40871;SDS011;26591;43.264;26.940;2023-03-01T14:26:45;40.60;;;26.17;;
40871;SDS011;26591;43.264;26.940;2023-03-01T14:32:08;39.17;;;26.80;;
40871;SDS011;26591;43.264;26.940;2023-03-01T14:34:49;33.60;;;23.48;;
40871;SDS011;26591;43.264;26.940;2023-03-01T14:42:51;48.55;;;27.50;;
40871;SDS011;26591;43.264;26.940;2023-03-01T14:45:18;48.13;;;27.10;;
40871;SDS011;26591;43.264;26.940;2023-03-01T14:47:43;39.95;;;25.35;;
40871;SDS011;26591;43.264;26.940;2023-03-01T14:52:49;58.63;;;34.80;;
40871;SDS011;26591;43.264;26.940;2023-03-01T14:55:18;74.38;;;38.22;;
40871;SDS011;26591;43.264;26.940;2023-03-01T14:57:50;38.15;;;24.80;;
40871;SDS011;26591;43.264;26.940;2023-03-01T15:00:29;42.17;;;26.75;;
40871;SDS011;26591;43.264;26.940;2023-03-01T15:03:00;50.38;;;30.10;;
40871;SDS011;26591;43.264;26.940;2023-03-01T15:05:34;45.72;;;28.88;;
40871;SDS011;26591;43.264;26.940;2023-03-01T15:08:01;50.85;;;28.70;;
40871;SDS011;26591;43.264;26.940;2023-03-01T15:10:29;47.72;;;30.02;;
40871;SDS011;26591;43.264;26.940;2023-03-01T15:13:09;43.83;;;28.38;;
40871;SDS011;26591;43.264;26.940;2023-03-01T15:15:43;52.93;;;31.83;;
40871;SDS011;26591;43.264;26.940;2023-03-01T15:18:18;38.88;;;27.40;;
40871;SDS011;26591;43.264;26.940;2023-03-01T15:20:47;45.55;;;29.73;;
40871;SDS011;26591;43.264;26.940;2023-03-01T15:23:26;64.45;;;33.75;;
40871;SDS011;26591;43.264;26.940;2023-03-01T15:25:53;46.67;;;31.77;;
40871;SDS011;26591;43.264;26.940;2023-03-01T15:28:26;39.80;;;27.05;;
40871;SDS011;26591;43.264;26.940;2023-03-01T15:33:44;44.92;;;30.83;;
40871;SDS011;26591;43.264;26.940;2023-03-01T15:38:56;49.65;;;28.58;;
40871;SDS011;26591;43.264;26.940;2023-03-01T15:44:25;45.25;;;26.20;;
40871;SDS011;26591;43.264;26.940;2023-03-01T15:46:53;51.67;;;29.92;;
40871;SDS011;26591;43.264;26.940;2023-03-01T15:52:13;45.75;;;28.75;;
40871;SDS011;26591;43.264;26.940;2023-03-01T15:55:01;36.38;;;27.10;;
40871;SDS011;26591;43.264;26.940;2023-03-01T15:57:29;42.40;;;28.85;;
40871;SDS011;26591;43.264;26.940;2023-03-01T16:02:57;31.10;;;23.02;;
40871;SDS011;26591;43.264;26.940;2023-03-01T16:05:25;36.92;;;22.17;;
40871;SDS011;26591;43.264;26.940;2023-03-01T16:07:53;38.17;;;23.65;;
40871;SDS011;26591;43.264;26.940;2023-03-01T16:10:28;29.05;;;17.92;;
40871;SDS011;26591;43.264;26.940;2023-03-01T16:12:54;29.63;;;19.13;;
40871;SDS011;26591;43.264;26.940;2023-03-01T16:15:23;34.20;;;21.15;;
40871;SDS011;26591;43.264;26.940;2023-03-01T16:17:53;40.05;;;24.75;;
40871;SDS011;26591;43.264;26.940;2023-03-01T16:20:19;37.60;;;24.58;;
40871;SDS011;26591;43.264;26.940;2023-03-01T16:22:45;35.22;;;21.50;;
40871;SDS011;26591;43.264;26.940;2023-03-01T16:25:12;32.38;;;20.27;;
40871;SDS011;26591;43.264;26.940;2023-03-01T16:27:41;36.50;;;22.45;;
40871;SDS011;26591;43.264;26.940;2023-03-01T16:30:07;29.88;;;22.25;;
40871;SDS011;26591;43.264;26.940;2023-03-01T16:32:37;31.55;;;23.33;;
40871;SDS011;26591;43.264;26.940;2023-03-01T16:35:05;33.13;;;23.38;;
40871;SDS011;26591;43.264;26.940;2023-03-01T16:37:32;29.98;;;21.27;;
40871;SDS011;26591;43.264;26.940;2023-03-01T16:39:59;31.45;;;21.85;;
40871;SDS011;26591;43.264;26.940;2023-03-01T16:42:25;34.90;;;23.35;;
40871;SDS011;26591;43.264;26.940;2023-03-01T16:44:56;36.85;;;22.90;;
40871;SDS011;26591;43.264;26.940;2023-03-01T16:47:22;30.27;;;22.40;;
40871;SDS011;26591;43.264;26.940;2023-03-01T16:49:51;29.52;;;20.45;;
40871;SDS011;26591;43.264;26.940;2023-03-01T16:52:17;35.70;;;23.27;;
40871;SDS011;26591;43.264;26.940;2023-03-01T16:54:43;36.05;;;24.05;;
40871;SDS011;26591;43.264;26.940;2023-03-01T16:57:09;36.88;;;25.10;;
40871;SDS011;26591;43.264;26.940;2023-03-01T16:59:34;30.70;;;21.50;;
40871;SDS011;26591;43.264;26.940;2023-03-01T17:02:00;34.97;;;22.48;;
40871;SDS011;26591;43.264;26.940;2023-03-01T17:04:25;31.67;;;23.20;;